OERR

Arar Domestic Airport

Arar, Saudi Arabia
TAF OERR 212300Z 2200/2306 33008KT 7000 SCT040 SCT100 PROB30 TEMPO 2200/2206 FEW035CB BKN040 BECMG 2208/2210 27013KT
Issued Valid From Valid To
Sep-21 @ 23:00 UTC
(5 hours ago)
Sep-22 @ 00:00 UTC
(4 hours ago)
Sep-23 @ 06:00 UTC
(-1 days ago)
to
to
to
TAF OERR 212300Z 2200/2306 33008KT 7000 SCT040 SCT100 PROB30 TEMPO 2200/2206 FEW035CB BKN040 BECMG 2208/2210 27013KT
Issued Sep-21 @ 23:00 UTC
(5 hours ago)
Valid From Sep-22 @ 00:00 UTC
(4 hours ago)
Valid To Sep-23 @ 06:00 UTC
(-1 days ago)
-
-
-